Vassan, Canada
Current Conditions -  °F | °C
As of 1:00 PM on Tuesday 21 Oct 2014 (Local Time) from CYVO Reporting Station
Broken Clouds Broken Clouds  
Wind Chill: 29°   Ceiling: 2400
Heat Index: 37°   Visibility: 15mi
Dew Point: 28°   Wind: 14mph
Humidity: 70%   Direction: 30°NNE
Pressure: 30.19"   Gusts: 20mph
Location:  48.27°N, 77.98°W
Report Text: CYVO 211700Z 03012G17KT 15SM BKN024 03/M02 A3019 RMK SC6 SLP242
Loading
Personal Weather Stations






























Interactive Weather Map
Tropical Storm Tracking
New forecast layout! Learn more

10-Day Weather Forecast

Advertisements
Track Severe Weather on mobile